Time;durP1;ratioP1;P1;durP2;ratioP2;P2;SDS_P1;SDS_P2;PMS_P1;PMS_P2;Temp;Humidity;BMP_temperature;BMP_pressure;BME280_temperature;BME280_humidity;BME280_pressure;Samples;Min_cycle;Max_cycle;Signal;HPM_P1;HPM_P2
2023/07/02 00:02:23;;;;;;;15.30;10.00;;;;;;;-128.00;-1.00;-1.00;18490;288;7506916;-36
2023/07/02 00:04:50;;;;;;;18.50;11.80;;;;;;;-128.00;-1.00;-1.00;18867;295;7504371;-36
2023/07/02 00:07:16;;;;;;;12.60;10.10;;;;;;;-128.00;-1.00;-1.00;18866;348;7504777;-32
2023/07/02 00:09:42;;;;;;;15.50;10.80;;;;;;;-128.00;-1.00;-1.00;18876;344;7505452;-33
2023/07/02 00:12:08;;;;;;;22.20;10.80;;;;;;;-128.00;-1.00;-1.00;18857;348;7504440;-35
2023/07/02 00:14:34;;;;;;;17.60;10.20;;;;;;;-128.00;-1.00;-1.00;18906;288;7504268;-32
2023/07/02 00:17:01;;;;;;;27.80;11.20;;;;;;;-128.00;-1.00;-1.00;18869;296;7505588;-31
2023/07/02 00:19:27;;;;;;;20.90;8.80;;;;;;;-128.00;-1.00;-1.00;18469;288;7504946;-32
2023/07/02 00:21:53;;;;;;;17.80;11.70;;;;;;;-128.00;-1.00;-1.00;18860;288;7505166;-33
2023/07/02 00:24:19;;;;;;;15.30;10.70;;;;;;;-128.00;-1.00;-1.00;18863;348;7504954;-33
2023/07/02 00:26:46;;;;;;;13.70;10.00;;;;;;;-128.00;-1.00;-1.00;18893;296;7504234;-36
2023/07/02 00:29:12;;;;;;;18.40;10.80;;;;;;;-128.00;-1.00;-1.00;18906;348;7504540;-33
2023/07/02 00:31:38;;;;;;;13.20;9.70;;;;;;;-128.00;-1.00;-1.00;18463;288;7504132;-36
2023/07/02 00:34:04;;;;;;;13.50;8.80;;;;;;;-128.00;-1.00;-1.00;18461;320;7504731;-36
2023/07/02 00:36:30;;;;;;;15.70;10.10;;;;;;;-128.00;-1.00;-1.00;18465;288;7504177;-32
2023/07/02 01:19:03;;;;;;;8.70;6.80;;;;;;;-99.37;19.20;19647.32;19559;313;8045481;-32
2023/07/02 01:21:28;;;;;;;9.10;6.30;;;;;;;-128.00;-1.00;-1.00;18149;323;7504766;-31
2023/07/02 01:23:55;;;;;;;9.00;7.30;;;;;;;-128.00;-1.00;-1.00;18471;297;7504357;-31
2023/07/02 01:26:20;;;;;;;14.10;9.00;;;;;;;-128.00;-1.00;-1.00;18459;297;7506318;-35
2023/07/02 01:28:46;;;;;;;17.40;7.40;;;;;;;-128.00;-1.00;-1.00;18427;309;7506841;-35
2023/07/02 01:31:12;;;;;;;10.10;7.40;;;;;;;-128.00;-1.00;-1.00;18453;297;7505377;-37
2023/07/02 01:33:39;;;;;;;12.00;7.30;;;;;;;-128.00;-1.00;-1.00;18458;297;7504681;-36
2023/07/02 01:36:05;;;;;;;10.70;5.00;;;;;;;-128.00;-1.00;-1.00;18483;297;7504821;-32
2023/07/02 01:38:30;;;;;;;6.90;4.90;;;;;;;-128.00;-1.00;-1.00;18468;297;7505060;-36
2023/07/02 01:40:56;;;;;;;12.80;6.70;;;;;;;-128.00;-1.00;-1.00;18438;309;7506244;-32
2023/07/02 01:43:22;;;;;;;7.80;6.60;;;;;;;-128.00;-1.00;-1.00;18440;350;7504270;-36
2023/07/02 01:45:48;;;;;;;8.30;5.70;;;;;;;-128.00;-1.00;-1.00;18456;297;7506235;-32
2023/07/02 01:48:13;;;;;;;9.80;6.00;;;;;;;-128.00;-1.00;-1.00;18455;297;7506229;-36
2023/07/02 01:50:39;;;;;;;6.70;5.40;;;;;;;-128.00;-1.00;-1.00;18457;297;7504573;-32
2023/07/02 01:53:05;;;;;;;6.40;4.80;;;;;;;-128.00;-1.00;-1.00;18445;325;7504677;-32
2023/07/02 01:55:31;;;;;;;5.60;4.70;;;;;;;-128.00;-1.00;-1.00;18458;297;7505976;-36
2023/07/02 01:57:57;;;;;;;7.20;5.60;;;;;;;-128.00;-1.00;-1.00;18848;297;7504552;-34
2023/07/02 02:00:24;;;;;;;11.30;5.60;;;;;;;-128.00;-1.00;-1.00;18869;350;7504534;-36
2023/07/02 02:02:50;;;;;;;7.80;5.10;;;;;;;-128.00;-1.00;-1.00;18455;297;7504973;-36
2023/07/02 02:05:16;;;;;;;16.80;5.80;;;;;;;-128.00;-1.00;-1.00;18457;297;7504857;-32
2023/07/02 02:07:42;;;;;;;6.60;5.20;;;;;;;-128.00;-1.00;-1.00;18457;297;7505357;-34
2023/07/02 02:10:09;;;;;;;6.00;4.30;;;;;;;-128.00;-1.00;-1.00;18437;297;7506789;-32
2023/07/02 02:12:35;;;;;;;6.60;5.40;;;;;;;-128.00;-1.00;-1.00;18447;350;7506036;-32
2023/07/02 02:15:00;;;;;;;6.60;5.60;;;;;;;-128.00;-1.00;-1.00;18452;286;7504678;-36
2023/07/02 02:17:26;;;;;;;13.80;6.10;;;;;;;-128.00;-1.00;-1.00;18488;297;7504841;-36
2023/07/02 02:19:53;;;;;;;6.20;3.90;;;;;;;-128.00;-1.00;-1.00;18470;297;7505512;-31
2023/07/02 02:22:18;;;;;;;7.20;5.40;;;;;;;-128.00;-1.00;-1.00;18442;297;7504981;-35
2023/07/02 02:24:45;;;;;;;10.30;5.20;;;;;;;-128.00;-1.00;-1.00;18865;297;7504179;-35
2023/07/02 02:27:11;;;;;;;6.90;5.80;;;;;;;-128.00;-1.00;-1.00;18847;297;7504906;-35
2023/07/02 02:29:37;;;;;;;9.40;5.40;;;;;;;-128.00;-1.00;-1.00;18841;297;7504687;-31
2023/07/02 02:32:04;;;;;;;9.50;5.60;;;;;;;-128.00;-1.00;-1.00;18859;297;7504222;-36
2023/07/02 02:34:30;;;;;;;6.30;5.10;;;;;;;-128.00;-1.00;-1.00;18470;297;7504969;-32
2023/07/02 02:36:56;;;;;;;5.40;4.10;;;;;;;-128.00;-1.00;-1.00;18470;297;7506286;-36
2023/07/02 02:39:22;;;;;;;5.30;4.50;;;;;;;-128.00;-1.00;-1.00;18446;287;7504714;-32
2023/07/02 02:41:48;;;;;;;9.20;3.50;;;;;;;-128.00;-1.00;-1.00;18464;297;7506024;-35
2023/07/02 02:44:14;;;;;;;11.40;4.90;;;;;;;-128.00;-1.00;-1.00;18860;297;7505641;-34
2023/07/02 02:46:40;;;;;;;6.80;5.10;;;;;;;-128.00;-1.00;-1.00;18861;337;7504505;-32
2023/07/02 02:49:06;;;;;;;9.10;6.10;;;;;;;-128.00;-1.00;-1.00;18871;297;7504711;-31
2023/07/02 02:51:32;;;;;;;6.20;4.80;;;;;;;-128.00;-1.00;-1.00;18874;297;7505610;-32
2023/07/02 02:53:59;;;;;;;11.10;5.70;;;;;;;-128.00;-1.00;-1.00;18862;349;7504823;-32
2023/07/02 02:56:25;;;;;;;6.00;5.30;;;;;;;-128.00;-1.00;-1.00;18870;297;7504758;-32
2023/07/02 02:58:51;;;;;;;5.30;3.50;;;;;;;-128.00;-1.00;-1.00;18829;299;7504726;-36
2023/07/02 03:01:18;;;;;;;7.70;5.20;;;;;;;-128.00;-1.00;-1.00;18848;285;7504573;-35
2023/07/02 03:03:47;;;;;;;8.10;4.90;;;;;;;-128.00;-1.00;-1.00;18859;297;7505030;-32
2023/07/02 03:06:14;;;;;;;3.70;3.10;;;;;;;-128.00;-1.00;-1.00;18463;297;7505153;-35
2023/07/02 03:08:40;;;;;;;11.80;5.60;;;;;;;-128.00;-1.00;-1.00;18445;289;7505184;-32
2023/07/02 03:11:06;;;;;;;6.50;5.00;;;;;;;-128.00;-1.00;-1.00;18458;341;7507005;-35
2023/07/02 03:13:32;;;;;;;7.30;3.50;;;;;;;-128.00;-1.00;-1.00;18471;297;7505936;-31
2023/07/02 03:15:57;;;;;;;7.80;4.40;;;;;;;-128.00;-1.00;-1.00;18453;297;7504634;-31
2023/07/02 03:18:24;;;;;;;8.70;5.10;;;;;;;-128.00;-1.00;-1.00;18452;297;7506125;-33
2023/07/02 03:20:49;;;;;;;5.80;4.00;;;;;;;-128.00;-1.00;-1.00;18470;297;7505028;-33
2023/07/02 03:23:15;;;;;;;3.40;3.10;;;;;;;-128.00;-1.00;-1.00;18461;297;7504795;-36
2023/07/02 03:25:41;;;;;;;10.20;5.50;;;;;;;-128.00;-1.00;-1.00;18477;297;7504595;-33
2023/07/02 03:28:07;;;;;;;5.00;4.10;;;;;;;-128.00;-1.00;-1.00;18494;297;7505285;-36
2023/07/02 03:30:32;;;;;;;15.10;3.80;;;;;;;-128.00;-1.00;-1.00;18455;297;7504477;-33
2023/07/02 03:32:58;;;;;;;4.60;3.50;;;;;;;-128.00;-1.00;-1.00;18455;297;7505106;-33
2023/07/02 03:35:24;;;;;;;8.10;2.10;;;;;;;-128.00;-1.00;-1.00;18461;297;7506601;-32
2023/07/02 03:37:50;;;;;;;6.50;2.80;;;;;;;-128.00;-1.00;-1.00;18477;297;7506019;-32
2023/07/02 03:40:16;;;;;;;5.30;2.70;;;;;;;-128.00;-1.00;-1.00;18446;297;7506208;-36
2023/07/02 03:42:43;;;;;;;7.70;3.60;;;;;;;-128.00;-1.00;-1.00;18471;297;7504197;-35
2023/07/02 03:45:09;;;;;;;13.20;2.90;;;;;;;-128.00;-1.00;-1.00;18434;299;7503973;-33
2023/07/02 03:47:35;;;;;;;4.00;2.40;;;;;;;-128.00;-1.00;-1.00;18468;297;7506026;-35
2023/07/02 03:50:01;;;;;;;6.60;3.20;;;;;;;-128.00;-1.00;-1.00;18874;341;7504256;-35
2023/07/02 03:52:27;;;;;;;9.80;3.70;;;;;;;-128.00;-1.00;-1.00;18843;341;7504227;-32
2023/07/02 03:54:54;;;;;;;3.50;2.60;;;;;;;-128.00;-1.00;-1.00;18860;289;7504623;-33
2023/07/02 03:57:20;;;;;;;4.50;2.90;;;;;;;-128.00;-1.00;-1.00;18856;325;7504474;-35
2023/07/02 03:59:46;;;;;;;8.00;2.70;;;;;;;-128.00;-1.00;-1.00;18857;297;7504235;-34
2023/07/02 04:02:13;;;;;;;3.00;2.20;;;;;;;-128.00;-1.00;-1.00;18858;299;7504591;-34
2023/07/02 04:04:39;;;;;;;2.50;1.70;;;;;;;-128.00;-1.00;-1.00;18841;297;7504623;-34
2023/07/02 04:07:05;;;;;;;4.30;1.50;;;;;;;-128.00;-1.00;-1.00;18844;297;7504755;-35
2023/07/02 04:09:32;;;;;;;2.50;1.80;;;;;;;-128.00;-1.00;-1.00;18896;297;7505257;-35
2023/07/02 04:12:00;;;;;;;2.60;1.70;;;;;;;-128.00;-1.00;-1.00;18447;297;7504738;-35
2023/07/02 04:14:25;;;;;;;0.70;0.50;;;;;;;-128.00;-1.00;-1.00;18436;309;7504820;-35
2023/07/02 04:16:51;;;;;;;2.90;1.30;;;;;;;-128.00;-1.00;-1.00;18445;297;7504934;-31
2023/07/02 04:19:17;;;;;;;1.50;0.90;;;;;;;-128.00;-1.00;-1.00;18438;297;7504782;-31
2023/07/02 04:21:43;;;;;;;1.40;1.20;;;;;;;-128.00;-1.00;-1.00;18470;297;7506268;-34
2023/07/02 04:24:08;;;;;;;2.20;0.80;;;;;;;-128.00;-1.00;-1.00;18460;297;7504793;-34
2023/07/02 04:26:36;;;;;;;1.90;0.80;;;;;;;-128.00;-1.00;-1.00;18437;297;7506235;-35
2023/07/02 04:29:02;;;;;;;2.40;1.90;;;;;;;-128.00;-1.00;-1.00;18450;297;7504417;-31
2023/07/02 04:31:28;;;;;;;4.40;4.10;;;;;;;-128.00;-1.00;-1.00;18440;297;7504563;-36
2023/07/02 04:33:53;;;;;;;3.20;1.80;;;;;;;-128.00;-1.00;-1.00;18455;297;7505144;-32
2023/07/02 04:36:19;;;;;;;5.50;1.70;;;;;;;-128.00;-1.00;-1.00;18461;297;7505110;-32
2023/07/02 04:38:45;;;;;;;3.30;1.60;;;;;;;-128.00;-1.00;-1.00;18468;297;7506169;-35
2023/07/02 04:41:10;;;;;;;2.20;1.90;;;;;;;-128.00;-1.00;-1.00;18462;297;7504972;-32
2023/07/02 04:43:37;;;;;;;2.90;1.70;;;;;;;-128.00;-1.00;-1.00;18452;297;7506643;-32
2023/07/02 04:46:02;;;;;;;2.00;0.90;;;;;;;-128.00;-1.00;-1.00;18449;297;7504429;-34
2023/07/02 04:48:28;;;;;;;2.00;1.20;;;;;;;-128.00;-1.00;-1.00;18470;297;7505015;-36
2023/07/02 04:50:54;;;;;;;1.30;0.90;;;;;;;-128.00;-1.00;-1.00;18454;297;7504494;-33
2023/07/02 04:53:20;;;;;;;1.90;1.50;;;;;;;-128.00;-1.00;-1.00;18862;305;7504596;-33
2023/07/02 04:55:46;;;;;;;3.70;0.80;;;;;;;-128.00;-1.00;-1.00;18869;297;7504564;-35
2023/07/02 04:58:13;;;;;;;5.20;1.10;;;;;;;-128.00;-1.00;-1.00;18874;301;7504574;-35
2023/07/02 05:00:39;;;;;;;3.30;1.00;;;;;;;-128.00;-1.00;-1.00;18860;297;7504664;-32
2023/07/02 05:03:05;;;;;;;1.60;0.90;;;;;;;-128.00;-1.00;-1.00;18860;297;7505163;-32
2023/07/02 05:05:31;;;;;;;3.20;0.50;;;;;;;-128.00;-1.00;-1.00;18861;297;7505008;-34
2023/07/02 05:07:58;;;;;;;2.50;0.90;;;;;;;-128.00;-1.00;-1.00;18856;297;7504288;-33
2023/07/02 05:10:24;;;;;;;3.00;1.60;;;;;;;-128.00;-1.00;-1.00;18861;297;7504405;-31
2023/07/02 05:12:50;;;;;;;9.10;2.10;;;;;;;-128.00;-1.00;-1.00;18852;338;7504713;-35
2023/07/02 05:15:16;;;;;;;1.00;0.40;;;;;;;-128.00;-1.00;-1.00;18859;297;7504539;-32
2023/07/02 05:17:43;;;;;;;17.30;1.00;;;;;;;-128.00;-1.00;-1.00;18866;297;7504899;-35
2023/07/02 05:20:09;;;;;;;2.00;1.00;;;;;;;-128.00;-1.00;-1.00;18874;297;7505056;-34
2023/07/02 05:22:35;;;;;;;1.70;1.30;;;;;;;-128.00;-1.00;-1.00;18469;297;7504583;-37
2023/07/02 05:25:01;;;;;;;4.20;0.50;;;;;;;-128.00;-1.00;-1.00;18453;297;7506016;-37
2023/07/02 05:27:27;;;;;;;0.80;0.60;;;;;;;-128.00;-1.00;-1.00;18492;297;7504808;-37
2023/07/02 05:29:52;;;;;;;2.30;1.40;;;;;;;-128.00;-1.00;-1.00;18467;297;7504759;-37
2023/07/02 05:32:18;;;;;;;3.20;1.90;;;;;;;-128.00;-1.00;-1.00;18472;297;7505134;-33
2023/07/02 05:34:44;;;;;;;4.80;0.90;;;;;;;-128.00;-1.00;-1.00;18447;297;7505921;-37
2023/07/02 05:37:10;;;;;;;4.00;0.80;;;;;;;-128.00;-1.00;-1.00;18486;297;7504326;-33
2023/07/02 05:39:36;;;;;;;0.60;0.30;;;;;;;-128.00;-1.00;-1.00;18444;297;7505351;-33
2023/07/02 05:42:02;;;;;;;0.90;0.60;;;;;;;-128.00;-1.00;-1.00;18470;312;7504461;-37
2023/07/02 05:44:28;;;;;;;0.90;0.60;;;;;;;-128.00;-1.00;-1.00;18470;297;7504482;-35
2023/07/02 05:46:54;;;;;;;0.60;0.40;;;;;;;-128.00;-1.00;-1.00;18464;297;7504544;-32
2023/07/02 05:49:19;;;;;;;7.00;0.50;;;;;;;-128.00;-1.00;-1.00;18457;297;7504438;-32
2023/07/02 05:51:45;;;;;;;7.70;0.50;;;;;;;-128.00;-1.00;-1.00;18464;297;7505530;-35
2023/07/02 05:54:12;;;;;;;0.90;0.80;;;;;;;-128.00;-1.00;-1.00;18441;297;7504829;-35
2023/07/02 05:56:37;;;;;;;1.40;0.90;;;;;;;-128.00;-1.00;-1.00;18475;297;7505763;-35
2023/07/02 05:59:03;;;;;;;1.20;0.40;;;;;;;-128.00;-1.00;-1.00;18843;297;7505408;-34
2023/07/02 06:01:30;;;;;;;2.40;0.70;;;;;;;-128.00;-1.00;-1.00;18865;297;7504998;-35
2023/07/02 06:03:56;;;;;;;1.20;0.80;;;;;;;-128.00;-1.00;-1.00;18865;297;7504440;-35
2023/07/02 06:06:25;;;;;;;1.30;0.90;;;;;;;-128.00;-1.00;-1.00;18859;297;7504166;-37
2023/07/02 06:08:51;;;;;;;1.30;0.80;;;;;;;-128.00;-1.00;-1.00;18460;297;7504569;-36
2023/07/02 06:11:17;;;;;;;0.90;0.60;;;;;;;-128.00;-1.00;-1.00;18464;341;7506099;-36
2023/07/02 06:13:43;;;;;;;0.30;0.30;;;;;;;-128.00;-1.00;-1.00;18457;297;7504558;-33
2023/07/02 06:16:09;;;;;;;2.20;0.70;;;;;;;-128.00;-1.00;-1.00;18469;297;7504486;-33
2023/07/02 06:18:34;;;;;;;0.50;0.50;;;;;;;-128.00;-1.00;-1.00;18467;297;7504862;-33
2023/07/02 06:21:00;;;;;;;6.00;0.70;;;;;;;-128.00;-1.00;-1.00;18453;297;7505516;-37
2023/07/02 06:23:26;;;;;;;0.50;0.40;;;;;;;-128.00;-1.00;-1.00;18460;349;7504589;-37
2023/07/02 06:25:58;;;;;;;0.70;0.50;;;;;;;-128.00;-1.00;-1.00;18459;297;7505179;-32
2023/07/02 06:28:26;;;;;;;0.60;0.50;;;;;;;-128.00;-1.00;-1.00;18468;341;7504378;-33
2023/07/02 06:30:52;;;;;;;0.40;0.30;;;;;;;-128.00;-1.00;-1.00;18476;297;7504716;-36
2023/07/02 06:33:17;;;;;;;2.20;0.90;;;;;;;-128.00;-1.00;-1.00;18458;297;7505037;-33
2023/07/02 06:35:43;;;;;;;1.60;0.50;;;;;;;-128.00;-1.00;-1.00;18473;297;7504459;-36
2023/07/02 06:38:10;;;;;;;0.10;0.10;;;;;;;-128.00;-1.00;-1.00;18462;297;7504664;-36
2023/07/02 06:40:36;;;;;;;2.70;1.30;;;;;;;-128.00;-1.00;-1.00;18847;297;7504977;-38
2023/07/02 06:43:02;;;;;;;1.90;1.30;;;;;;;-128.00;-1.00;-1.00;18837;349;7504593;-36
2023/07/02 06:45:28;;;;;;;1.70;0.80;;;;;;;-128.00;-1.00;-1.00;18864;297;7504871;-35
2023/07/02 06:47:54;;;;;;;0.50;0.50;;;;;;;-128.00;-1.00;-1.00;18897;289;7504200;-32
2023/07/02 06:50:22;;;;;;;2.70;0.90;;;;;;;-128.00;-1.00;-1.00;18873;297;7505053;-32
2023/07/02 06:52:47;;;;;;;0.80;0.50;;;;;;;-128.00;-1.00;-1.00;18475;297;7505801;-35
2023/07/02 06:55:13;;;;;;;1.30;0.50;;;;;;;-128.00;-1.00;-1.00;18480;349;7504415;-32
2023/07/02 06:57:45;;;;;;;0.60;0.60;;;;;;;-128.00;-1.00;-1.00;18414;299;7505367;-32
2023/07/02 07:00:12;;;;;;;1.40;0.30;;;;;;;-128.00;-1.00;-1.00;18440;297;7505607;-35
2023/07/02 07:02:38;;;;;;;0.90;0.70;;;;;;;-128.00;-1.00;-1.00;18468;297;7504767;-32
2023/07/02 07:05:04;;;;;;;0.90;0.40;;;;;;;-128.00;-1.00;-1.00;18458;297;7505783;-35
2023/07/02 07:07:30;;;;;;;5.10;1.00;;;;;;;-128.00;-1.00;-1.00;18471;304;7505142;-36
2023/07/02 07:09:56;;;;;;;1.10;0.80;;;;;;;-128.00;-1.00;-1.00;18441;297;7504945;-32
2023/07/02 07:12:21;;;;;;;1.20;0.60;;;;;;;-128.00;-1.00;-1.00;18468;337;7504845;-33
2023/07/02 07:14:47;;;;;;;0.70;0.60;;;;;;;-128.00;-1.00;-1.00;18459;297;7505758;-36
2023/07/02 07:17:13;;;;;;;2.00;0.80;;;;;;;-128.00;-1.00;-1.00;18446;320;7504591;-36
2023/07/02 07:19:39;;;;;;;0.40;0.30;;;;;;;-128.00;-1.00;-1.00;18475;297;7507043;-36
2023/07/02 07:22:05;;;;;;;1.30;0.90;;;;;;;-128.00;-1.00;-1.00;18481;297;7505314;-36
2023/07/02 07:24:31;;;;;;;1.50;0.80;;;;;;;-128.00;-1.00;-1.00;18451;349;7506062;-36
2023/07/02 07:26:57;;;;;;;0.50;0.30;;;;;;;-128.00;-1.00;-1.00;18858;297;7505177;-34
2023/07/02 07:29:24;;;;;;;4.00;0.70;;;;;;;-128.00;-1.00;-1.00;18839;337;7504826;-35
2023/07/02 07:31:50;;;;;;;1.30;0.40;;;;;;;-128.00;-1.00;-1.00;18474;297;7504513;-35
2023/07/02 07:34:16;;;;;;;0.70;0.60;;;;;;;-128.00;-1.00;-1.00;18458;297;7504488;-35
2023/07/02 07:36:42;;;;;;;2.40;0.90;;;;;;;-128.00;-1.00;-1.00;18464;308;7506030;-36
2023/07/02 07:39:08;;;;;;;11.80;1.00;;;;;;;-128.00;-1.00;-1.00;18448;297;7504961;-32
2023/07/02 07:41:33;;;;;;;2.00;0.70;;;;;;;-128.00;-1.00;-1.00;18453;297;7504843;-32
2023/07/02 07:44:01;;;;;;;1.40;0.80;;;;;;;-128.00;-1.00;-1.00;18460;349;7504619;-33
2023/07/02 07:46:27;;;;;;;1.80;1.30;;;;;;;-128.00;-1.00;-1.00;18444;299;7506026;-35
2023/07/02 07:48:53;;;;;;;2.40;1.70;;;;;;;-128.00;-1.00;-1.00;18462;297;7505744;-35
2023/07/02 07:51:18;;;;;;;1.00;0.60;;;;;;;-128.00;-1.00;-1.00;18470;297;7504420;-36
2023/07/02 07:53:44;;;;;;;0.30;0.20;;;;;;;-128.00;-1.00;-1.00;18475;298;7504802;-32
2023/07/02 07:56:10;;;;;;;1.30;0.60;;;;;;;-128.00;-1.00;-1.00;18445;306;7506522;-33
2023/07/02 07:58:36;;;;;;;0.90;0.60;;;;;;;-128.00;-1.00;-1.00;18447;297;7506208;-33
2023/07/02 08:01:01;;;;;;;1.50;0.60;;;;;;;-128.00;-1.00;-1.00;18454;297;7506432;-33
2023/07/02 08:03:27;;;;;;;1.10;0.60;;;;;;;-128.00;-1.00;-1.00;18457;297;7504289;-32
2023/07/02 08:05:53;;;;;;;0.40;0.30;;;;;;;-128.00;-1.00;-1.00;18468;297;7505936;-32
2023/07/02 08:08:19;;;;;;;19.30;1.30;;;;;;;-128.00;-1.00;-1.00;18848;341;7504918;-35
2023/07/02 08:10:46;;;;;;;1.20;0.70;;;;;;;-128.00;-1.00;-1.00;18847;297;7504752;-32
2023/07/02 08:13:12;;;;;;;2.70;0.80;;;;;;;-128.00;-1.00;-1.00;18458;341;7504576;-35
2023/07/02 08:15:37;;;;;;;0.90;0.50;;;;;;;-128.00;-1.00;-1.00;18447;297;7504521;-35
2023/07/02 08:18:03;;;;;;;1.30;0.60;;;;;;;-128.00;-1.00;-1.00;18456;297;7506077;-33
2023/07/02 08:20:29;;;;;;;0.60;0.40;;;;;;;-128.00;-1.00;-1.00;18461;297;7505942;-35
2023/07/02 08:22:55;;;;;;;5.30;0.70;;;;;;;-128.00;-1.00;-1.00;18871;349;7504372;-32
2023/07/02 08:25:21;;;;;;;0.90;0.70;;;;;;;-128.00;-1.00;-1.00;18872;297;7505162;-31
2023/07/02 08:27:47;;;;;;;0.40;0.40;;;;;;;-128.00;-1.00;-1.00;18466;297;7505481;-33
2023/07/02 08:30:14;;;;;;;1.80;0.80;;;;;;;-128.00;-1.00;-1.00;18464;297;7504840;-32
2023/07/02 08:32:39;;;;;;;0.90;0.60;;;;;;;-128.00;-1.00;-1.00;18451;297;7505433;-33
2023/07/02 08:35:05;;;;;;;3.30;0.90;;;;;;;-128.00;-1.00;-1.00;18466;297;7505991;-32
2023/07/02 08:37:31;;;;;;;2.00;0.50;;;;;;;-128.00;-1.00;-1.00;18463;297;7504521;-33
2023/07/02 08:39:57;;;;;;;1.70;1.20;;;;;;;-128.00;-1.00;-1.00;18858;297;7505412;-37
2023/07/02 08:42:23;;;;;;;2.70;1.00;;;;;;;-128.00;-1.00;-1.00;18856;297;7504566;-37
2023/07/02 08:44:53;;;;;;;3.80;0.90;;;;;;;-128.00;-1.00;-1.00;18854;297;7504862;-35
2023/07/02 08:47:19;;;;;;;0.70;0.70;;;;;;;-128.00;-1.00;-1.00;18489;297;7506351;-36
2023/07/02 08:49:45;;;;;;;3.80;1.30;;;;;;;-128.00;-1.00;-1.00;18487;297;7504507;-33
2023/07/02 08:52:10;;;;;;;2.60;1.00;;;;;;;-128.00;-1.00;-1.00;18489;341;7504169;-36
2023/07/02 08:54:36;;;;;;;1.40;0.90;;;;;;;-128.00;-1.00;-1.00;18870;297;7505463;-32
2023/07/02 08:57:05;;;;;;;2.40;1.00;;;;;;;-128.00;-1.00;-1.00;18867;297;7504596;-32
2023/07/02 08:59:31;;;;;;;1.40;0.60;;;;;;;-128.00;-1.00;-1.00;18468;297;7504801;-36
2023/07/02 09:01:56;;;;;;;1.30;1.20;;;;;;;-128.00;-1.00;-1.00;18471;297;7505592;-35
2023/07/02 09:04:24;;;;;;;1.00;0.70;;;;;;;-128.00;-1.00;-1.00;18457;297;7504471;-32
2023/07/02 09:07:02;;;;;;;0.80;0.70;;;;;;;-128.00;-1.00;-1.00;18469;297;7504618;-35
2023/07/02 09:09:29;;;;;;;1.60;1.50;;;;;;;-128.00;-1.00;-1.00;18456;299;7504507;-32
2023/07/02 09:11:54;;;;;;;1.90;1.50;;;;;;;-128.00;-1.00;-1.00;18479;320;7505386;-32
2023/07/02 09:14:28;;;;;;;1.40;0.80;;;;;;;-128.00;-1.00;-1.00;18870;297;7504303;-32
2023/07/02 09:17:06;;;;;;;1.70;1.00;;;;;;;-128.00;-1.00;-1.00;18470;297;7505668;-32
2023/07/02 09:19:32;;;;;;;2.90;1.80;;;;;;;-128.00;-1.00;-1.00;18487;285;7504225;-36
2023/07/02 09:22:02;;;;;;;1.50;0.70;;;;;;;-128.00;-1.00;-1.00;18095;298;7504700;-35
2023/07/02 09:24:29;;;;;;;1.20;0.60;;;;;;;-128.00;-1.00;-1.00;18452;297;7504548;-32
2023/07/02 09:26:56;;;;;;;1.60;1.20;;;;;;;-128.00;-1.00;-1.00;18447;349;7506275;-35
2023/07/02 09:29:28;;;;;;;1.10;1.00;;;;;;;-128.00;-1.00;-1.00;18478;297;7504736;-32
2023/07/02 09:31:54;;;;;;;;;;;;;;;-128.00;-1.00;-1.00;18498;297;7504110;-32
2023/07/02 09:34:19;;;;;;;0.70;0.70;;;;;;;-128.00;-1.00;-1.00;18418;298;7506167;-32
2023/07/02 09:36:45;;;;;;;1.20;0.60;;;;;;;-128.00;-1.00;-1.00;18464;297;7504718;-32
2023/07/02 09:39:13;;;;;;;0.90;0.50;;;;;;;-128.00;-1.00;-1.00;18459;289;7504720;-35
2023/07/02 09:41:41;;;;;;;0.80;0.50;;;;;;;-128.00;-1.00;-1.00;18465;297;7506295;-32
2023/07/02 09:44:07;;;;;;;0.40;0.40;;;;;;;-128.00;-1.00;-1.00;18460;297;7506977;-35
2023/07/02 09:46:33;;;;;;;0.60;0.50;;;;;;;-128.00;-1.00;-1.00;18456;297;7506342;-31
2023/07/02 09:48:59;;;;;;;1.20;0.60;;;;;;;-128.00;-1.00;-1.00;18867;285;7505295;-32
2023/07/02 09:51:25;;;;;;;1.40;0.70;;;;;;;-128.00;-1.00;-1.00;18880;297;7504149;-35
2023/07/02 09:53:52;;;;;;;0.70;0.40;;;;;;;-128.00;-1.00;-1.00;18860;297;7504355;-32
2023/07/02 09:56:21;;;;;;;1.60;1.00;;;;;;;-128.00;-1.00;-1.00;18872;297;7505962;-32
2023/07/02 09:58:46;;;;;;;2.40;0.50;;;;;;;-128.00;-1.00;-1.00;18480;297;7504625;-35
2023/07/02 10:01:12;;;;;;;0.60;0.60;;;;;;;-128.00;-1.00;-1.00;18480;312;7504115;-31
2023/07/02 10:03:38;;;;;;;1.10;0.70;;;;;;;-128.00;-1.00;-1.00;18827;324;7504404;-36
2023/07/02 10:06:05;;;;;;;0.50;0.50;;;;;;;-128.00;-1.00;-1.00;18868;320;7504357;-36
2023/07/02 10:08:31;;;;;;;0.90;0.50;;;;;;;-128.00;-1.00;-1.00;18487;297;7505031;-33
2023/07/02 10:11:09;;;;;;;0.60;0.60;;;;;;;-128.00;-1.00;-1.00;18458;297;7504590;-38
2023/07/02 10:13:35;;;;;;;1.90;1.20;;;;;;;-128.00;-1.00;-1.00;18489;297;7504143;-36
2023/07/02 10:16:02;;;;;;;0.80;0.80;;;;;;;-128.00;-1.00;-1.00;18468;297;7506215;-35
2023/07/02 10:18:28;;;;;;;0.70;0.70;;;;;;;-128.00;-1.00;-1.00;18480;297;7504840;-36
2023/07/02 10:20:53;;;;;;;0.60;0.50;;;;;;;-128.00;-1.00;-1.00;18446;297;7506032;-36
2023/07/02 10:23:20;;;;;;;2.60;0.80;;;;;;;-128.00;-1.00;-1.00;18871;297;7504885;-32
2023/07/02 10:25:46;;;;;;;2.00;1.00;;;;;;;-128.00;-1.00;-1.00;18881;308;7505385;-33
2023/07/02 10:28:19;;;;;;;1.60;0.80;;;;;;;-128.00;-1.00;-1.00;18872;297;7504600;-35
2023/07/02 10:30:44;;;;;;;2.30;1.20;;;;;;;-128.00;-1.00;-1.00;18467;297;7504853;-33
2023/07/02 10:33:14;;;;;;;0.70;0.60;;;;;;;-128.00;-1.00;-1.00;18435;297;7505042;-34
2023/07/02 10:35:44;;;;;;;1.30;1.20;;;;;;;-128.00;-1.00;-1.00;18484;297;7505218;-33
2023/07/02 10:38:17;;;;;;;1.20;0.90;;;;;;;-128.00;-1.00;-1.00;18444;297;7504427;-33
2023/07/02 10:40:43;;;;;;;1.20;1.00;;;;;;;-128.00;-1.00;-1.00;18457;297;7505302;-37
2023/07/02 10:43:08;;;;;;;2.60;1.20;;;;;;;-128.00;-1.00;-1.00;18439;303;7505830;-36
2023/07/02 10:45:35;;;;;;;1.80;1.20;;;;;;;-128.00;-1.00;-1.00;18883;297;7505643;-37
2023/07/02 10:48:03;;;;;;;1.70;1.00;;;;;;;-128.00;-1.00;-1.00;18453;349;7505981;-35
2023/07/02 10:50:30;;;;;;;2.00;0.90;;;;;;;-128.00;-1.00;-1.00;18460;297;7506416;-35
2023/07/02 10:52:55;;;;;;;1.10;0.70;;;;;;;-128.00;-1.00;-1.00;18465;297;7504623;-31
2023/07/02 10:55:23;;;;;;;1.40;1.00;;;;;;;-128.00;-1.00;-1.00;18866;297;7504902;-31
2023/07/02 10:57:50;;;;;;;2.80;1.40;;;;;;;-128.00;-1.00;-1.00;18457;297;7505429;-34
2023/07/02 11:00:17;;;;;;;1.30;1.20;;;;;;;-128.00;-1.00;-1.00;18491;341;7506162;-34
2023/07/02 11:02:42;;;;;;;2.50;1.10;;;;;;;-128.00;-1.00;-1.00;18463;337;7504773;-37
2023/07/02 11:05:12;;;;;;;1.10;1.00;;;;;;;-128.00;-1.00;-1.00;18464;333;7506090;-34
2023/07/02 11:07:41;;;;;;;5.50;1.10;;;;;;;-128.00;-1.00;-1.00;18482;321;7504998;-34
2023/07/02 11:10:08;;;;;;;1.00;1.00;;;;;;;-128.00;-1.00;-1.00;18469;297;7505052;-32
2023/07/02 11:12:34;;;;;;;1.40;1.30;;;;;;;-128.00;-1.00;-1.00;18474;297;7504708;-32
2023/07/02 11:15:12;;;;;;;6.10;1.50;;;;;;;-128.00;-1.00;-1.00;18481;297;7505054;-37
2023/07/02 11:17:40;;;;;;;1.10;1.00;;;;;;;-128.00;-1.00;-1.00;18459;351;7505852;-32
2023/07/02 11:20:10;;;;;;;1.20;1.10;;;;;;;-128.00;-1.00;-1.00;18471;297;7506907;-35
2023/07/02 11:22:36;;;;;;;1.20;1.00;;;;;;;-128.00;-1.00;-1.00;18460;297;7505236;-32
2023/07/02 11:25:16;;;;;;;1.30;0.60;;;;;;;-128.00;-1.00;-1.00;18444;297;7504572;-37
2023/07/02 11:27:42;;;;;;;1.00;0.70;;;;;;;-128.00;-1.00;-1.00;18453;309;7504769;-33
2023/07/02 11:30:08;;;;;;;3.20;1.20;;;;;;;-128.00;-1.00;-1.00;18459;297;7505090;-36
2023/07/02 11:32:52;;;;;;;3.10;0.80;;;;;;;-128.00;-1.00;-1.00;18449;301;7505016;-33
2023/07/02 11:35:18;;;;;;;2.20;0.80;;;;;;;-128.00;-1.00;-1.00;18467;297;7507059;-37
2023/07/02 11:37:44;;;;;;;1.30;1.10;;;;;;;-128.00;-1.00;-1.00;18461;297;7504382;-36
2023/07/02 11:40:11;;;;;;;2.40;0.90;;;;;;;-128.00;-1.00;-1.00;18456;297;7504845;-32
2023/07/02 11:42:36;;;;;;;3.50;0.50;;;;;;;-128.00;-1.00;-1.00;18440;297;7505548;-32
2023/07/02 11:45:02;;;;;;;0.70;0.60;;;;;;;-128.00;-1.00;-1.00;18450;297;7504846;-36
2023/07/02 11:47:28;;;;;;;1.90;1.60;;;;;;;-128.00;-1.00;-1.00;18466;297;7505043;-36
2023/07/02 11:49:55;;;;;;;0.50;0.50;;;;;;;-128.00;-1.00;-1.00;18866;297;7504331;-33
2023/07/02 11:52:21;;;;;;;4.60;1.20;;;;;;;-128.00;-1.00;-1.00;18890;298;7504766;-33
2023/07/02 11:54:48;;;;;;;1.00;0.80;;;;;;;-128.00;-1.00;-1.00;18481;297;7506008;-37
2023/07/02 11:57:13;;;;;;;0.80;0.80;;;;;;;-128.00;-1.00;-1.00;18454;298;7504186;-36
2023/07/02 11:59:39;;;;;;;0.90;0.80;;;;;;;-128.00;-1.00;-1.00;18431;297;7504806;-33
2023/07/02 12:02:05;;;;;;;1.00;0.70;;;;;;;-128.00;-1.00;-1.00;18477;298;7506986;-34
2023/07/02 12:04:31;;;;;;;2.00;1.10;;;;;;;-128.00;-1.00;-1.00;18457;297;7505055;-36
2023/07/02 12:06:57;;;;;;;2.50;1.10;;;;;;;-128.00;-1.00;-1.00;18469;297;7506489;-33
2023/07/02 12:09:23;;;;;;;1.20;1.10;;;;;;;-128.00;-1.00;-1.00;18457;341;7504909;-32